Impacts TAF Board
For situational awareness. Not to be used for flight planning purposes.
IDs:

KSSF - San Antonio/Stinson, TX, US

Issued at 0532 UTC 19 Aug 2019
Updated at 0634 UTC 19 Aug 2019
Potential Impact None Slight Moderate High
Time<<19/19Z 19/20Z 19/21Z 19/22Z 19/23Z 20/00Z 20/01Z 20/02Z 20/03Z 20/04Z 20/05Z 20/06Z 20/07Z>>
Type PRVL PRVL PRVL PRVL PRVL PRVL PRVL PRVL PRVL PRVL PRVL
VIS >6 >6 >6 >6 >6 >6 >6 >6 >6 >6 >6
CIG -- -- -- -- -- -- -- -- -- -- --
Cover SCT SCT SCT SCT SCT SCT SCT SCT SCT SCT SCT
FltCat VFR VFR VFR VFR VFR VFR VFR VFR VFR VFR VFR
WX -- -- -- -- -- -- -- -- -- -- --
WDir 140 140 140 140 140 140 140 140 140 140 140
WSpd 14 14 14 14 14 14 14 14 14 14 14
WGst -- -- -- -- -- -- -- -- -- -- --
Raw TAF
KSSF 190532Z 1906/2006 14010KT P6SM FEW250
  FM190800 15007KT P6SM BKN015 BKN025
  FM191500 14014KT P6SM SCT025


METAR Board
Radar Display
Forecast Discussion
For situational awareness. Not to be used for flight planning purposes.